Time;durP1;ratioP1;P1;durP2;ratioP2;P2;SDS_P1;SDS_P2;PMS_P1;PMS_P2;Temp;Humidity;BMP_temperature;BMP_pressure;BME280_temperature;BME280_humidity;BME280_pressure;Samples;Min_cycle;Max_cycle;Signal;HPM_P1;HPM_P2
2023/05/05 00:01:27;;;;;;;0.43;0.43;;;10.20;99.90;;;;;;5029676;28;20049;-72
2023/05/05 00:03:52;;;;;;;;;;;10.20;99.90;;;;;;5029190;28;20095;-72
2023/05/05 00:06:18;;;;;;;0.30;0.30;;;10.20;99.90;;;;;;5026300;28;20332;-72
2023/05/05 00:08:45;;;;;;;0.40;0.40;;;10.20;99.90;;;;;;5028058;28;20079;-74
2023/05/05 00:11:10;;;;;;;0.40;0.40;;;10.20;99.90;;;;;;5029661;28;20051;-72
2023/05/05 00:13:37;;;;;;;0.50;0.50;;;10.20;99.90;;;;;;5028869;28;20414;-72
2023/05/05 00:16:03;;;;;;;0.40;0.40;;;10.20;99.90;;;;;;5028961;28;20492;-73
2023/05/05 00:18:29;;;;;;;0.50;0.50;;;10.20;99.90;;;;;;5029855;28;20504;-73
2023/05/05 00:20:55;;;;;;;0.50;0.50;;;10.10;99.90;;;;;;5013552;28;20490;-73
2023/05/05 00:23:20;;;;;;;0.50;0.50;;;10.10;99.90;;;;;;5028421;28;20041;-73
2023/05/05 00:25:46;;;;;;;0.40;0.40;;;10.10;99.90;;;;;;5024815;28;20045;-73
2023/05/05 00:28:15;;;;;;;0.50;0.50;;;10.10;99.90;;;;;;5028111;28;20123;-72
2023/05/05 00:30:40;;;;;;;0.90;0.90;;;10.00;99.90;;;;;;5011992;28;20482;-73
2023/05/05 00:33:06;;;;;;;0.35;0.35;;;10.00;99.90;;;;;;5013892;28;20040;-72
2023/05/05 00:35:32;;;;;;;0.43;0.43;;;10.00;99.90;;;;;;5023657;28;20172;-73
2023/05/05 00:37:58;;;;;;;0.38;0.38;;;9.20;99.90;;;;;;5026521;28;20048;-74
2023/05/05 00:40:24;;;;;;;;;;;10.00;99.90;;;;;;5010520;28;20477;-73
2023/05/05 00:42:50;;;;;;;0.52;0.52;;;10.00;99.90;;;;;;5024354;28;19924;-72
2023/05/05 00:45:17;;;;;;;0.40;0.40;;;10.00;99.90;;;;;;5011980;28;20071;-73
2023/05/05 00:47:46;;;;;;;0.50;0.50;;;10.00;99.90;;;;;;5008240;28;20128;-73
2023/05/05 00:50:24;;;;;;;0.50;0.50;;;10.00;99.90;;;;;;5027706;28;20123;-72
2023/05/05 00:52:54;;;;;;;0.47;0.47;;;9.90;99.90;;;;;;5026726;28;20052;-73
2023/05/05 00:55:20;;;;;;;0.55;0.55;;;9.90;99.90;;;;;;5042927;28;20116;-72
2023/05/05 00:57:47;;;;;;;;;;;10.00;99.90;;;;;;5025230;28;20500;-73
2023/05/05 01:00:13;;;;;;;0.70;0.70;;;9.90;99.90;;;;;;5025640;28;20368;-73
2023/05/05 01:02:39;;;;;;;;;;;9.90;99.90;;;;;;5026796;28;20414;-73
2023/05/05 01:05:06;;;;;;;0.50;0.50;;;9.80;99.90;;;;;;5006820;28;20373;-72
2023/05/05 01:08:06;;;;;;;0.43;0.43;;;9.80;99.90;;;;;;5040703;28;20049;-73
2023/05/05 01:10:50;;;;;;;0.90;0.77;;;9.70;99.90;;;;;;5026989;28;20080;-73
2023/05/05 01:13:31;;;;;;;0.47;0.47;;;9.70;99.90;;;;;;5038323;28;20682;-73
2023/05/05 01:16:15;;;;;;;0.40;0.40;;;9.70;99.90;;;;;;5026642;28;20053;-73
2023/05/05 01:18:52;;;;;;;0.50;0.50;;;9.60;99.90;;;;;;5026004;28;20043;-74
2023/05/05 01:21:33;;;;;;;0.30;0.30;;;9.60;99.90;;;;;;5025112;28;20351;-74
2023/05/05 01:24:17;;;;;;;0.40;0.40;;;9.50;99.90;;;;;;5029637;28;20412;-73
2023/05/05 01:27:16;;;;;;;0.40;0.40;;;9.50;99.90;;;;;;5025599;28;20622;-74
2023/05/05 01:30:13;;;;;;;5.63;1.25;;;9.50;99.90;;;;;;5023857;28;20053;-73
2023/05/05 01:32:46;;;;;;;0.35;0.35;;;9.40;99.90;;;;;;5028535;28;20429;-73
2023/05/05 01:35:21;;;;;;;0.50;0.50;;;9.40;99.90;;;;;;5023175;28;20416;-74
2023/05/05 01:37:54;;;;;;;0.30;0.30;;;9.40;99.90;;;;;;5023248;28;20045;-73
2023/05/05 01:40:27;;;;;;;0.40;0.40;;;9.40;99.90;;;;;;5018791;28;20188;-73
2023/05/05 01:42:54;;;;;;;0.68;0.60;;;9.30;99.90;;;;;;5023341;28;20087;-73
2023/05/05 01:45:23;;;;;;;0.50;0.50;;;9.30;99.90;;;;;;5021270;28;20041;-72
2023/05/05 01:47:52;;;;;;;0.50;0.50;;;9.30;99.90;;;;;;5020478;28;20057;-73
2023/05/05 01:50:19;;;;;;;0.30;0.30;;;9.30;99.90;;;;;;5024031;28;20049;-73
2023/05/05 01:52:46;;;;;;;0.60;0.60;;;9.20;99.90;;;;;;5028505;28;20068;-75
2023/05/05 01:55:16;;;;;;;0.80;0.80;;;9.20;99.90;;;;;;5025328;28;20053;-74
2023/05/05 01:57:43;;;;;;;0.47;0.47;;;9.20;99.90;;;;;;5021815;28;20499;-74
2023/05/05 02:00:10;;;;;;;0.50;0.50;;;9.20;99.90;;;;;;5009145;28;20092;-74
2023/05/05 02:02:37;;;;;;;0.40;0.40;;;9.20;99.90;;;;;;5028681;28;20033;-74
2023/05/05 02:05:05;;;;;;;0.43;0.43;;;9.20;99.90;;;;;;5021997;28;20049;-74
2023/05/05 02:07:32;;;;;;;0.38;0.38;;;9.20;99.90;;;;;;5021143;28;20038;-74
2023/05/05 02:10:00;;;;;;;0.40;0.40;;;9.20;99.90;;;;;;5026075;28;20132;-73
2023/05/05 02:12:28;;;;;;;0.73;0.73;;;9.20;99.90;;;;;;5027622;28;20467;-73
2023/05/05 02:14:58;;;;;;;0.60;0.60;;;9.20;99.90;;;;;;5024467;28;20049;-72
2023/05/05 02:17:25;;;;;;;0.38;0.38;;;9.30;99.90;;;;;;5022544;28;20840;-74
2023/05/05 02:19:53;;;;;;;0.30;0.30;;;9.30;99.90;;;;;;5029058;28;20061;-73
2023/05/05 02:22:19;;;;;;;0.38;0.38;;;9.30;99.90;;;;;;5022644;28;20080;-73
2023/05/05 02:24:45;;;;;;;0.60;0.60;;;9.30;99.90;;;;;;5025952;28;20147;-72
2023/05/05 02:27:14;;;;;;;0.30;0.30;;;9.40;99.90;;;;;;5025120;28;20100;-73
2023/05/05 02:29:53;;;;;;;0.43;0.43;;;9.40;99.90;;;;;;5019399;28;20541;-73
2023/05/05 02:32:30;;;;;;;0.40;0.40;;;9.40;99.90;;;;;;5023078;28;20052;-74
2023/05/05 02:35:00;;;;;;;0.47;0.47;;;9.40;99.90;;;;;;5021967;28;20057;-74
2023/05/05 02:37:30;;;;;;;0.63;0.57;;;9.40;99.90;;;;;;5028031;28;20053;-74
2023/05/05 02:40:04;;;;;;;0.52;0.52;;;9.50;99.90;;;;;;5017321;28;20075;-72
2023/05/05 02:42:37;;;;;;;0.65;0.65;;;9.50;99.90;;;;;;5009356;28;20041;-74
2023/05/05 02:45:13;;;;;;;0.30;0.30;;;9.50;99.90;;;;;;5026225;28;20071;-73
2023/05/05 02:47:39;;;;;;;0.40;0.40;;;9.50;99.90;;;;;;5027743;28;20043;-73
2023/05/05 02:50:06;;;;;;;0.60;0.60;;;9.50;99.90;;;;;;5025769;28;20049;-72
2023/05/05 02:52:33;;;;;;;0.50;0.50;;;9.50;99.90;;;;;;5028777;28;20041;-72
2023/05/05 02:55:00;;;;;;;0.82;0.82;;;9.50;99.90;;;;;;5020455;28;20083;-72
2023/05/05 02:57:52;;;;;;;0.43;0.43;;;9.60;99.90;;;;;;5026635;28;20124;-73
2023/05/05 03:00:42;;;;;;;0.50;0.50;;;9.60;99.90;;;;;;5025624;28;20054;-74
2023/05/05 03:03:21;;;;;;;0.40;0.40;;;9.60;99.90;;;;;;5025773;28;20038;-74
2023/05/05 03:05:58;;;;;;;0.30;0.30;;;9.50;99.90;;;;;;5017460;28;20048;-73
2023/05/05 03:08:41;;;;;;;0.50;0.50;;;9.50;99.90;;;;;;5008095;28;20503;-73
2023/05/05 03:11:35;;;;;;;0.40;0.40;;;9.50;99.90;;;;;;5025200;28;20123;-73
2023/05/05 03:14:10;;;;;;;0.40;0.40;;;9.50;99.90;;;;;;5024619;28;20128;-72
2023/05/05 03:16:38;;;;;;;0.50;0.50;;;9.50;99.90;;;;;;5023773;28;20075;-73
2023/05/05 03:19:05;;;;;;;0.60;0.60;;;9.40;99.90;;;;;;5005709;28;20513;-73
2023/05/05 03:21:32;;;;;;;0.43;0.43;;;9.40;99.90;;;;;;5024681;28;20041;-73
2023/05/05 03:23:58;;;;;;;1.95;0.98;;;9.30;99.90;;;;;;5020647;28;20038;-72
2023/05/05 03:26:23;;;;;;;0.38;0.38;;;9.30;99.90;;;;;;5021745;28;20087;-73
2023/05/05 03:28:50;;;;;;;0.60;0.60;;;9.20;99.90;;;;;;5023116;28;20052;-73
2023/05/05 03:31:16;;;;;;;;;;;9.20;99.90;;;;;;5024714;28;20102;-74
2023/05/05 03:33:42;;;;;;;0.75;0.75;;;9.20;99.90;;;;;;5010451;28;19927;-73
2023/05/05 03:36:08;;;;;;;0.50;0.50;;;9.20;99.90;;;;;;5006209;28;21526;-73
2023/05/05 03:38:33;;;;;;;0.50;0.50;;;9.20;99.90;;;;;;5009412;28;20403;-73
2023/05/05 03:41:02;;;;;;;0.40;0.40;;;8.90;99.90;;;;;;5002607;28;20164;-72
2023/05/05 03:43:28;;;;;;;0.50;0.50;;;9.20;99.90;;;;;;5002911;28;20530;-73
2023/05/05 03:45:54;;;;;;;0.40;0.40;;;9.20;99.90;;;;;;5023895;28;20563;-73
2023/05/05 03:48:19;;;;;;;0.50;0.50;;;9.20;99.90;;;;;;5007695;28;20045;-74
2023/05/05 03:50:45;;;;;;;0.40;0.40;;;9.20;99.90;;;;;;5016940;28;20392;-72
2023/05/05 03:53:11;;;;;;;0.40;0.40;;;9.20;99.90;;;;;;5022601;28;20037;-73
2023/05/05 03:55:36;;;;;;;0.47;0.47;;;9.30;99.90;;;;;;5023050;28;20049;-73
2023/05/05 03:58:02;;;;;;;0.40;0.40;;;9.30;99.90;;;;;;5023777;28;20543;-72
2023/05/05 04:00:28;;;;;;;0.50;0.50;;;9.30;99.90;;;;;;5022786;28;20615;-73
2023/05/05 04:02:54;;;;;;;0.45;0.45;;;9.40;99.90;;;;;;5006739;28;20053;-73
2023/05/05 04:05:21;;;;;;;0.50;0.50;;;9.40;99.90;;;;;;5008571;28;20494;-74
2023/05/05 04:07:47;;;;;;;0.50;0.50;;;9.50;99.90;;;;;;5001894;28;20041;-73
2023/05/05 04:10:12;;;;;;;0.45;0.45;;;9.50;99.90;;;;;;5020580;28;20060;-74
2023/05/05 04:12:38;;;;;;;0.43;0.43;;;9.50;99.90;;;;;;4993104;28;20598;-74
2023/05/05 04:15:05;;;;;;;0.47;0.47;;;9.80;99.90;;;;;;5023180;28;20095;-73
2023/05/05 04:17:31;;;;;;;0.40;0.40;;;9.70;99.90;;;;;;5019277;28;20050;-73
2023/05/05 04:19:57;;;;;;;0.50;0.50;;;9.70;99.90;;;;;;5022551;28;20494;-74
2023/05/05 04:22:22;;;;;;;2.17;0.82;;;9.80;99.90;;;;;;5024291;28;20034;-74
2023/05/05 04:24:48;;;;;;;0.30;0.30;;;9.90;99.90;;;;;;5038795;28;20041;-73
2023/05/05 04:27:14;;;;;;;0.40;0.40;;;9.90;99.90;;;;;;5020418;28;20052;-74
2023/05/05 04:29:40;;;;;;;0.35;0.35;;;10.00;99.90;;;;;;5023192;28;20069;-73
2023/05/05 04:32:05;;;;;;;;;;;10.00;99.90;;;;;;5006188;28;20136;-74
2023/05/05 04:34:31;;;;;;;0.65;0.65;;;10.00;99.90;;;;;;5034420;28;20012;-74
2023/05/05 04:36:57;;;;;;;0.47;0.47;;;10.00;99.90;;;;;;5024750;28;20055;-74
2023/05/05 04:39:22;;;;;;;0.40;0.40;;;10.10;99.90;;;;;;5005559;28;20194;-73
2023/05/05 04:41:48;;;;;;;0.60;0.60;;;10.10;99.90;;;;;;5018132;28;20048;-74
2023/05/05 04:44:14;;;;;;;0.63;0.63;;;10.10;99.90;;;;;;5020655;28;20078;-73
2023/05/05 04:46:40;;;;;;;0.30;0.30;;;10.00;99.90;;;;;;5023929;28;20391;-73
2023/05/05 04:49:06;;;;;;;0.50;0.50;;;10.00;99.90;;;;;;5014050;28;20076;-73
2023/05/05 04:51:32;;;;;;;0.40;0.40;;;9.90;99.90;;;;;;5022974;28;20073;-74
2023/05/05 04:53:57;;;;;;;0.40;0.40;;;9.80;99.90;;;;;;5038750;28;20053;-73
2023/05/05 04:56:23;;;;;;;0.47;0.47;;;9.80;99.90;;;;;;5002325;28;20219;-74
2023/05/05 04:58:49;;;;;;;0.50;0.50;;;9.80;99.90;;;;;;5019648;28;20558;-73
2023/05/05 05:01:15;;;;;;;0.30;0.30;;;9.70;99.90;;;;;;5018328;28;21570;-74
2023/05/05 05:03:41;;;;;;;;;;;9.70;99.90;;;;;;5019176;28;20084;-74
2023/05/05 05:06:07;;;;;;;0.40;0.40;;;9.60;99.90;;;;;;4999967;28;19921;-73
2023/05/05 05:08:32;;;;;;;0.40;0.40;;;9.60;99.90;;;;;;5003897;28;20451;-73
2023/05/05 05:10:58;;;;;;;0.55;0.55;;;9.50;99.90;;;;;;5016394;28;20045;-74
2023/05/05 05:13:24;;;;;;;0.30;0.30;;;9.40;99.90;;;;;;4997934;28;20068;-73
2023/05/05 05:15:50;;;;;;;0.40;0.40;;;9.40;99.90;;;;;;5020530;28;20483;-73
2023/05/05 05:18:16;;;;;;;0.40;0.40;;;9.30;99.90;;;;;;5019269;28;20073;-73
2023/05/05 05:20:41;;;;;;;0.40;0.40;;;9.30;99.90;;;;;;5007772;28;20042;-74
2023/05/05 05:23:07;;;;;;;0.35;0.35;;;9.20;99.90;;;;;;5006255;28;20148;-74
2023/05/05 05:25:33;;;;;;;0.55;0.55;;;9.20;99.90;;;;;;4986484;28;20356;-74
2023/05/05 05:27:58;;;;;;;0.30;0.30;;;9.10;99.90;;;;;;5025638;28;20133;-73
2023/05/05 05:30:24;;;;;;;0.20;0.20;;;9.10;99.90;;;;;;4994497;28;20037;-73
2023/05/05 05:32:50;;;;;;;0.45;0.45;;;9.10;99.90;;;;;;5027685;28;20087;-73
2023/05/05 05:35:15;;;;;;;0.40;0.40;;;9.10;99.90;;;;;;5020686;28;20515;-73
2023/05/05 05:37:41;;;;;;;0.45;0.45;;;9.10;99.90;;;;;;5025757;28;20054;-73
2023/05/05 05:40:08;;;;;;;0.32;0.32;;;9.00;99.90;;;;;;5021990;28;20451;-73
2023/05/05 05:42:34;;;;;;;0.40;0.40;;;9.10;99.90;;;;;;5009163;28;20548;-73
2023/05/05 05:45:00;;;;;;;0.50;0.50;;;9.10;99.90;;;;;;5038317;28;20038;-73
2023/05/05 05:47:26;;;;;;;0.40;0.40;;;9.60;99.90;;;;;;5007821;28;20124;-74
2023/05/05 05:49:52;;;;;;;0.30;0.30;;;9.20;99.90;;;;;;5011602;28;20423;-74
2023/05/05 05:52:18;;;;;;;0.45;0.45;;;9.30;99.90;;;;;;5009177;28;20048;-73
2023/05/05 05:54:43;;;;;;;0.50;0.50;;;9.50;99.90;;;;;;5027485;28;20057;-73
2023/05/05 05:57:09;;;;;;;0.50;0.50;;;9.70;99.90;;;;;;4986676;28;20068;-74
2023/05/05 05:59:35;;;;;;;0.50;0.50;;;9.90;99.90;;;;;;5026254;28;20045;-73
2023/05/05 06:02:01;;;;;;;0.63;0.55;;;10.10;99.90;;;;;;5025937;28;20423;-73
2023/05/05 06:04:26;;;;;;;0.40;0.40;;;10.30;99.90;;;;;;5017429;28;20037;-74
2023/05/05 06:06:52;;;;;;;0.50;0.50;;;10.50;99.90;;;;;;5003577;28;20483;-74
2023/05/05 06:09:17;;;;;;;0.68;0.52;;;10.70;99.90;;;;;;5027023;28;20130;-74
2023/05/05 06:11:43;;;;;;;0.50;0.50;;;10.80;99.90;;;;;;5025163;28;20057;-73
2023/05/05 06:14:09;;;;;;;0.30;0.30;;;10.90;99.90;;;;;;4985207;28;20513;-74
2023/05/05 06:16:35;;;;;;;0.60;0.60;;;10.90;99.90;;;;;;5022975;28;20041;-74
2023/05/05 06:19:00;;;;;;;0.50;0.50;;;10.80;99.90;;;;;;5018261;28;20044;-74
2023/05/05 06:21:26;;;;;;;0.38;0.35;;;10.70;99.90;;;;;;5027439;28;20067;-75
2023/05/05 06:23:52;;;;;;;0.40;0.40;;;10.60;99.90;;;;;;5024752;28;20037;-74
2023/05/05 06:26:17;;;;;;;0.30;0.30;;;10.60;99.90;;;;;;5008723;28;20045;-75
2023/05/05 06:28:43;;;;;;;2.90;1.48;;;10.50;99.90;;;;;;5012084;28;20476;-75
2023/05/05 06:31:11;;;;;;;0.40;0.40;;;10.50;99.90;;;;;;5023049;28;20046;-74
2023/05/05 06:33:37;;;;;;;0.40;0.40;;;10.60;99.90;;;;;;5015069;28;20347;-74
2023/05/05 06:36:03;;;;;;;0.30;0.30;;;10.70;99.90;;;;;;5027921;28;20072;-75
2023/05/05 06:38:28;;;;;;;;;;;10.90;99.90;;;;;;5007047;28;20121;-75
2023/05/05 06:40:57;;;;;;;0.28;0.28;;;11.10;99.90;;;;;;5030235;28;19921;-76
2023/05/05 06:43:22;;;;;;;0.40;0.40;;;11.20;99.90;;;;;;5013943;28;20049;-76
2023/05/05 06:45:48;;;;;;;1.63;0.52;;;11.30;99.90;;;;;;5019540;28;20422;-77
2023/05/05 06:48:14;;;;;;;0.40;0.40;;;11.30;99.90;;;;;;5033768;28;20053;-75
2023/05/05 06:50:40;;;;;;;0.40;0.40;;;11.40;99.90;;;;;;5026672;28;20068;-75
2023/05/05 06:53:05;;;;;;;0.50;0.50;;;11.40;99.90;;;;;;5028741;28;20123;-74
2023/05/05 06:55:31;;;;;;;0.40;0.40;;;11.30;99.90;;;;;;5000943;28;20504;-75
2023/05/05 06:57:57;;;;;;;0.32;0.32;;;11.30;99.90;;;;;;5003485;28;20044;-75
2023/05/05 07:00:22;;;;;;;0.30;0.30;;;11.30;99.90;;;;;;5021703;28;20906;-76
2023/05/05 07:02:48;;;;;;;0.40;0.40;;;11.30;99.90;;;;;;5003709;28;20037;-76
2023/05/05 07:05:14;;;;;;;;;;;11.30;99.90;;;;;;5024907;28;20136;-75
2023/05/05 07:07:53;;;;;;;0.40;0.40;;;11.40;99.90;;;;;;5027335;28;20003;-76
2023/05/05 07:10:21;;;;;;;0.47;0.47;;;11.50;99.90;;;;;;5006562;28;20038;-75
2023/05/05 07:12:47;;;;;;;0.35;0.35;;;11.50;99.90;;;;;;5020209;28;20477;-76
2023/05/05 07:15:13;;;;;;;0.30;0.30;;;11.50;99.90;;;;;;5041983;28;20049;-75
2023/05/05 07:17:39;;;;;;;;;;;11.60;99.90;;;;;;5025037;28;20048;-75
2023/05/05 07:20:06;;;;;;;0.60;0.60;;;11.70;99.90;;;;;;5019330;28;19920;-76
2023/05/05 07:22:32;;;;;;;0.50;0.50;;;11.80;99.90;;;;;;5020910;28;20033;-76
2023/05/05 07:24:57;;;;;;;0.65;0.65;;;11.80;99.90;;;;;;5023328;28;20063;-75
2023/05/05 07:27:23;;;;;;;0.40;0.40;;;11.90;99.90;;;;;;5018619;28;20041;-76
2023/05/05 07:29:49;;;;;;;0.98;0.98;;;12.10;99.90;;;;;;5022465;28;20041;-76
2023/05/05 07:32:14;;;;;;;0.50;0.50;;;12.20;99.90;;;;;;5002854;28;20079;-75
2023/05/05 07:34:40;;;;;;;0.30;0.30;;;12.30;99.90;;;;;;5006347;28;20085;-76
2023/05/05 07:37:06;;;;;;;0.30;0.30;;;12.90;99.90;;;;;;5006493;28;20068;-75
2023/05/05 07:39:32;;;;;;;;;;;12.60;99.90;;;;;;5021056;28;20042;-75
2023/05/05 07:41:58;;;;;;;0.40;0.40;;;12.70;99.90;;;;;;5022116;28;19925;-76
2023/05/05 07:44:24;;;;;;;;;;;12.80;99.90;;;;;;5022217;28;20047;-76
2023/05/05 07:46:50;;;;;;;0.35;0.35;;;12.90;99.90;;;;;;5020842;28;19925;-76
2023/05/05 07:49:15;;;;;;;0.40;0.40;;;13.00;99.90;;;;;;5019422;28;20127;-76
2023/05/05 07:51:41;;;;;;;0.32;0.32;;;13.00;99.90;;;;;;5020321;28;20041;-76
2023/05/05 07:54:07;;;;;;;0.65;0.65;;;13.10;99.90;;;;;;4986268;28;20394;-76
2023/05/05 07:56:33;;;;;;;0.40;0.40;;;13.20;99.90;;;;;;5009018;28;20613;-76
2023/05/05 07:58:58;;;;;;;;;;;13.30;99.90;;;;;;5022793;28;20037;-74
2023/05/05 08:01:24;;;;;;;0.32;0.32;;;13.40;99.90;;;;;;5024973;28;19917;-77
2023/05/05 08:03:50;;;;;;;0.50;0.50;;;13.40;99.90;;;;;;5006411;28;20120;-74
2023/05/05 08:06:20;;;;;;;2.08;1.65;;;13.60;99.90;;;;;;5025159;28;20549;-74
2023/05/05 08:08:47;;;;;;;0.88;0.88;;;13.70;99.90;;;;;;5006161;28;20049;-74
2023/05/05 08:11:14;;;;;;;1.55;1.45;;;13.90;99.90;;;;;;5011126;28;20037;-75
2023/05/05 08:13:41;;;;;;;0.60;0.60;;;14.10;99.90;;;;;;5024658;28;20049;-76
2023/05/05 08:16:08;;;;;;;0.45;0.45;;;14.20;99.90;;;;;;5027034;28;20049;-76
2023/05/05 08:18:36;;;;;;;0.25;0.25;;;14.20;99.90;;;;;;5023875;28;20046;-76
2023/05/05 08:21:07;;;;;;;1.15;1.13;;;14.40;99.90;;;;;;5026264;28;20329;-76
2023/05/05 08:23:33;;;;;;;1.02;1.02;;;14.50;99.90;;;;;;5037063;28;20041;-75
2023/05/05 08:25:59;;;;;;;0.63;0.63;;;14.70;99.90;;;;;;5023649;28;20104;-73
2023/05/05 08:28:25;;;;;;;0.50;0.50;;;14.70;99.90;;;;;;5022229;28;20037;-74
2023/05/05 08:30:51;;;;;;;0.40;0.40;;;14.80;99.90;;;;;;5021378;28;20178;-75
2023/05/05 08:33:17;;;;;;;0.50;0.50;;;14.90;99.90;;;;;;5021531;28;20041;-75
2023/05/05 08:35:43;;;;;;;;;;;14.90;99.90;;;;;;5021445;28;20057;-76
2023/05/05 08:38:09;;;;;;;0.30;0.30;;;14.90;99.90;;;;;;5023902;28;19961;-74
2023/05/05 08:40:38;;;;;;;0.40;0.40;;;14.80;99.90;;;;;;5019921;28;20056;-75
2023/05/05 08:43:04;;;;;;;0.35;0.35;;;14.90;99.90;;;;;;5020719;28;20099;-75
2023/05/05 08:45:30;;;;;;;0.80;0.80;;;15.00;99.90;;;;;;5022339;28;20473;-75
2023/05/05 08:47:59;;;;;;;0.40;0.40;;;15.10;99.90;;;;;;5021093;28;20033;-75
2023/05/05 08:50:26;;;;;;;1.02;1.00;;;15.10;99.90;;;;;;5023182;28;20473;-76
2023/05/05 08:53:15;;;;;;;0.50;0.50;;;15.10;99.90;;;;;;5020734;28;20037;-75
2023/05/05 08:55:49;;;;;;;1.05;0.77;;;15.10;99.90;;;;;;5016330;28;20053;-75
2023/05/05 08:58:17;;;;;;;2.03;1.80;;;15.20;99.90;;;;;;5020660;28;20517;-75
2023/05/05 09:00:45;;;;;;;1.55;0.65;;;15.30;99.90;;;;;;5005255;28;20046;-75
2023/05/05 09:03:11;;;;;;;1.13;1.08;;;15.30;99.90;;;;;;5005233;28;20176;-75
2023/05/05 09:05:37;;;;;;;0.90;0.70;;;15.40;99.90;;;;;;5003361;28;20402;-75
2023/05/05 09:08:09;;;;;;;0.98;0.98;;;15.40;99.90;;;;;;5023231;28;20502;-75
2023/05/05 09:10:39;;;;;;;1.08;0.98;;;15.40;99.90;;;;;;5020456;28;20042;-75
2023/05/05 09:13:05;;;;;;;1.17;1.13;;;15.40;99.90;;;;;;5003207;28;20060;-75
2023/05/05 09:15:32;;;;;;;0.45;0.43;;;15.40;99.90;;;;;;5019447;28;20064;-75
2023/05/05 09:17:58;;;;;;;1.08;1.08;;;15.40;99.90;;;;;;5020624;28;20049;-74
2023/05/05 09:20:38;;;;;;;0.82;0.63;;;15.60;99.90;;;;;;5019382;28;20038;-75
2023/05/05 09:23:10;;;;;;;0.68;0.68;;;15.70;99.90;;;;;;5001903;28;20057;-75
2023/05/05 09:25:36;;;;;;;0.45;0.45;;;15.90;99.90;;;;;;5013159;28;20120;-75
2023/05/05 09:28:12;;;;;;;0.82;0.82;;;16.00;99.90;;;;;;5022375;28;20094;-75
2023/05/05 09:30:40;;;;;;;0.90;0.68;;;16.20;99.90;;;;;;5012762;28;20467;-75
2023/05/05 09:33:06;;;;;;;0.50;0.50;;;16.40;99.90;;;;;;5015479;28;20052;-75
2023/05/05 09:35:50;;;;;;;1.75;1.13;;;16.60;99.90;;;;;;5014430;28;20410;-76
2023/05/05 09:38:17;;;;;;;1.05;0.88;;;16.70;99.90;;;;;;5031593;28;20046;-76
2023/05/05 09:40:47;;;;;;;3.20;0.68;;;16.90;99.90;;;;;;5001211;28;20413;-76
2023/05/05 09:43:13;;;;;;;1.27;1.17;;;17.10;99.90;;;;;;5022831;28;20045;-76
2023/05/05 09:45:39;;;;;;;0.70;0.70;;;17.30;99.90;;;;;;5022081;28;20076;-76
2023/05/05 09:48:05;;;;;;;;;;;17.50;99.90;;;;;;5004552;28;20475;-76
2023/05/05 09:50:42;;;;;;;0.52;0.52;;;17.70;99.90;;;;;;5021667;28;20354;-76
2023/05/05 09:53:09;;;;;;;0.50;0.50;;;17.90;99.90;;;;;;5021560;28;20097;-76
2023/05/05 09:55:35;;;;;;;0.57;0.57;;;18.10;99.90;;;;;;5018570;28;20045;-75
2023/05/05 09:58:17;;;;;;;;;;;18.10;99.90;;;;;;5021974;28;20046;-76
2023/05/05 10:00:43;;;;;;;1.13;1.05;;;18.10;99.90;;;;;;5020558;28;19924;-76
2023/05/05 10:03:08;;;;;;;;;;;18.00;99.90;;;;;;5018503;28;20037;-77
2023/05/05 10:05:49;;;;;;;0.73;0.73;;;18.00;99.90;;;;;;5025880;28;20393;-76
2023/05/05 10:08:16;;;;;;;2.40;1.05;;;17.80;99.90;;;;;;5024348;28;20045;-76
2023/05/05 10:10:52;;;;;;;0.30;0.30;;;17.70;99.90;;;;;;5008092;28;20045;-76
2023/05/05 10:13:19;;;;;;;0.50;0.50;;;17.70;99.90;;;;;;5024578;28;20086;-75
2023/05/05 10:15:48;;;;;;;1.10;1.00;;;17.70;99.90;;;;;;5028940;28;20086;-76
2023/05/05 10:18:18;;;;;;;0.65;0.57;;;17.90;99.90;;;;;;5026639;28;20115;-76
2023/05/05 10:20:46;;;;;;;0.65;0.65;;;18.00;99.90;;;;;;5027702;28;20041;-76
2023/05/05 10:23:17;;;;;;;1.40;1.30;;;18.20;99.90;;;;;;5028784;28;20133;-76
2023/05/05 10:25:51;;;;;;;1.73;1.58;;;18.40;99.90;;;;;;5023961;28;20371;-75
2023/05/05 10:28:26;;;;;;;1.73;1.63;;;18.70;99.90;;;;;;5027609;28;20133;-75
2023/05/05 10:30:55;;;;;;;0.93;0.93;;;18.80;99.90;;;;;;5026342;28;20110;-75
2023/05/05 10:33:48;;;;;;;1.17;1.08;;;18.90;99.90;;;;;;5025390;28;20067;-76
2023/05/05 10:36:15;;;;;;;0.82;0.77;;;19.10;99.90;;;;;;5025929;28;20057;-75
2023/05/05 10:38:41;;;;;;;1.80;1.52;;;19.10;99.90;;;;;;5027384;28;20468;-74
2023/05/05 10:41:09;;;;;;;0.55;0.55;;;19.10;99.90;;;;;;5025522;28;20071;-75
2023/05/05 10:43:35;;;;;;;1.73;1.13;;;19.10;99.90;;;;;;5028089;28;20080;-75
2023/05/05 10:46:01;;;;;;;0.50;0.50;;;19.20;99.90;;;;;;5028212;28;20057;-75
2023/05/05 10:48:31;;;;;;;3.38;1.73;;;19.40;99.90;;;;;;5027364;28;20064;-76
2023/05/05 10:51:31;;;;;;;2.08;1.77;;;19.80;99.90;;;;;;5028301;28;20060;-76
2023/05/05 10:54:12;;;;;;;5.35;2.53;;;20.00;99.90;;;;;;5022102;28;20058;-74
2023/05/05 10:56:40;;;;;;;2.90;1.83;;;20.00;99.90;;;;;;5008993;28;20049;-76
2023/05/05 10:59:34;;;;;;;1.25;0.93;;;20.20;99.90;;;;;;5021837;28;20550;-74
2023/05/05 11:02:00;;;;;;;1.65;1.25;;;20.30;99.90;;;;;;5007054;28;20167;-76
2023/05/05 11:04:25;;;;;;;1.15;1.05;;;20.30;99.90;;;;;;5021477;28;20461;-76
2023/05/05 11:07:06;;;;;;;;;;;20.30;99.90;;;;;;5025265;28;20064;-76
2023/05/05 11:09:35;;;;;;;3.30;3.10;;;20.20;99.90;;;;;;5020516;28;19921;-76
2023/05/05 11:12:03;;;;;;;1.65;1.55;;;20.00;99.90;;;;;;5025684;28;20490;-76
2023/05/05 11:14:29;;;;;;;1.67;1.58;;;20.10;99.90;;;;;;5019577;28;20042;-76
2023/05/05 11:16:55;;;;;;;1.80;1.55;;;20.10;99.90;;;;;;5022541;28;20122;-76
2023/05/05 11:19:43;;;;;;;1.40;1.30;;;20.40;99.90;;;;;;5022877;28;20091;-76
2023/05/05 11:22:09;;;;;;;2.03;1.45;;;20.80;99.90;;;;;;5026812;28;20467;-76
2023/05/05 11:24:35;;;;;;;1.50;1.42;;;20.80;99.90;;;;;;5018990;28;20084;-76
2023/05/05 11:27:02;;;;;;;2.03;1.88;;;20.70;99.90;;;;;;5022152;28;20045;-75
2023/05/05 11:30:04;;;;;;;1.85;1.75;;;20.80;99.90;;;;;;5023770;28;20067;-76
2023/05/05 11:32:30;;;;;;;2.75;2.42;;;21.10;99.90;;;;;;5020296;28;20363;-77
2023/05/05 11:34:55;;;;;;;1.02;0.98;;;21.30;99.90;;;;;;5024740;28;20053;-76
2023/05/05 11:37:27;;;;;;;2.63;1.08;;;21.30;99.90;;;;;;5006976;28;20529;-76
2023/05/05 11:40:08;;;;;;;0.93;0.93;;;21.50;99.90;;;;;;5022559;28;20045;-76
2023/05/05 11:42:34;;;;;;;0.50;0.50;;;21.60;99.90;;;;;;5024259;28;20387;-76
2023/05/05 11:45:01;;;;;;;1.58;1.25;;;21.80;99.90;;;;;;5023432;28;20049;-77
2023/05/05 11:47:28;;;;;;;8.85;1.98;;;21.60;99.90;;;;;;5022004;28;20395;-76
2023/05/05 11:49:54;;;;;;;1.42;1.33;;;21.30;99.90;;;;;;5026551;28;20075;-75
2023/05/05 11:52:23;;;;;;;2.75;2.55;;;20.50;99.90;;;;;;5027423;28;20049;-75
2023/05/05 11:54:49;;;;;;;1.75;1.58;;;20.70;99.90;;;;;;5026113;28;20037;-76
2023/05/05 11:57:20;;;;;;;2.67;1.55;;;20.60;99.90;;;;;;5027757;28;20094;-75
2023/05/05 12:00:07;;;;;;;1.67;1.58;;;20.60;99.90;;;;;;5024950;28;20040;-75
2023/05/05 12:02:33;;;;;;;5.35;1.65;;;20.70;99.90;;;;;;5022235;28;20526;-76
2023/05/05 12:05:00;;;;;;;1.27;1.17;;;20.80;99.90;;;;;;5009584;28;20460;-75
2023/05/05 12:07:28;;;;;;;6.05;2.28;;;21.00;99.90;;;;;;5027945;28;20057;-77
2023/05/05 12:09:54;;;;;;;2.47;2.08;;;21.10;99.90;;;;;;5014195;28;20053;-75
2023/05/05 12:12:33;;;;;;;2.65;1.80;;;21.20;99.90;;;;;;5041528;28;20080;-76
2023/05/05 12:15:00;;;;;;;1.27;1.17;;;21.30;99.90;;;;;;5020245;28;20045;-76
2023/05/05 12:17:39;;;;;;;2.30;2.20;;;21.40;99.90;;;;;;5005721;28;20077;-76
2023/05/05 12:20:05;;;;;;;1.75;1.65;;;21.40;99.90;;;;;;5006377;28;20481;-77
2023/05/05 12:22:30;;;;;;;1.27;1.17;;;21.60;99.90;;;;;;5019663;28;20052;-76
2023/05/05 12:24:58;;;;;;;1.25;1.10;;;21.70;99.90;;;;;;5021592;28;20406;-76
2023/05/05 12:27:26;;;;;;;0.70;0.70;;;21.70;99.90;;;;;;5024351;28;20447;-77
2023/05/05 12:29:56;;;;;;;2.17;1.00;;;21.80;99.90;;;;;;5023976;28;20511;-77
2023/05/05 12:32:26;;;;;;;1.05;0.95;;;21.80;99.90;;;;;;5020796;28;20049;-76
2023/05/05 12:34:54;;;;;;;1.17;1.13;;;21.70;99.90;;;;;;5023418;28;20049;-77
2023/05/05 12:37:21;;;;;;;0.73;0.73;;;21.70;99.90;;;;;;5024325;28;20395;-77
2023/05/05 12:39:47;;;;;;;2.22;1.00;;;21.70;99.90;;;;;;5020778;28;20053;-78
2023/05/05 12:42:13;;;;;;;1.38;1.27;;;21.70;99.90;;;;;;5024346;28;20037;-77
2023/05/05 12:44:39;;;;;;;0.60;0.60;;;21.60;99.90;;;;;;5022371;28;20056;-76
2023/05/05 12:47:06;;;;;;;1.38;1.25;;;21.50;99.90;;;;;;5024468;28;20055;-76
2023/05/05 12:49:52;;;;;;;1.55;0.95;;;21.20;99.90;;;;;;5027101;28;20120;-76
2023/05/05 12:52:18;;;;;;;1.45;1.35;;;21.10;99.90;;;;;;5024273;28;20081;-76
2023/05/05 12:54:54;;;;;;;1.13;0.95;;;20.90;99.90;;;;;;5025170;28;20153;-76
2023/05/05 12:57:20;;;;;;;;;;;20.70;99.90;;;;;;5022700;28;20073;-76
2023/05/05 12:59:46;;;;;;;2.28;2.17;;;20.70;99.90;;;;;;5021518;28;20012;-76
2023/05/05 13:02:12;;;;;;;;;;;20.60;99.90;;;;;;5006879;28;20068;-76
2023/05/05 13:04:53;;;;;;;1.27;1.25;;;20.50;99.90;;;;;;5018039;28;20327;-77